sensor_id;sensor_type;location;lat;lon;timestamp;pressure;altitude;pressure_sealevel;temperature;humidity
59106;BME280;44891;50.204;8.132;2023-04-04T00:00:20;99306.13;;;0.58;62.09
59106;BME280;44891;50.204;8.132;2023-04-04T00:04:22;99297.94;;;0.44;62.58
59106;BME280;44891;50.204;8.132;2023-04-04T00:08:24;99297.72;;;0.56;62.99
59106;BME280;44891;50.204;8.132;2023-04-04T00:12:26;99299.63;;;0.71;62.46
59106;BME280;44891;50.204;8.132;2023-04-04T00:16:29;99292.59;;;0.46;61.92
59106;BME280;44891;50.204;8.132;2023-04-04T00:20:31;99295.72;;;0.49;62.14
59106;BME280;44891;50.204;8.132;2023-04-04T00:24:33;99291.59;;;0.57;62.68
59106;BME280;44891;50.204;8.132;2023-04-04T00:28:35;99294.47;;;0.53;63.59
59106;BME280;44891;50.204;8.132;2023-04-04T00:32:38;99285.00;;;0.44;64.22
59106;BME280;44891;50.204;8.132;2023-04-04T00:36:40;99284.47;;;0.23;65.14
59106;BME280;44891;50.204;8.132;2023-04-04T00:40:42;99286.69;;;0.18;65.02
59106;BME280;44891;50.204;8.132;2023-04-04T00:44:46;99282.56;;;0.25;65.23
59106;BME280;44891;50.204;8.132;2023-04-04T00:48:49;99285.44;;;0.22;66.07
59106;BME280;44891;50.204;8.132;2023-04-04T00:52:51;99282.97;;;0.48;64.92
59106;BME280;44891;50.204;8.132;2023-04-04T00:56:53;99279.06;;;0.16;66.02
59106;BME280;44891;50.204;8.132;2023-04-04T01:00:55;99285.81;;;-0.01;65.58
59106;BME280;44891;50.204;8.132;2023-04-04T01:04:58;99290.88;;;0.19;65.74
59106;BME280;44891;50.204;8.132;2023-04-04T01:09:01;99284.31;;;0.07;65.59
59106;BME280;44891;50.204;8.132;2023-04-04T01:13:03;99279.44;;;-0.34;66.95
59106;BME280;44891;50.204;8.132;2023-04-04T01:17:06;99276.78;;;-0.42;67.70
59106;BME280;44891;50.204;8.132;2023-04-04T01:21:10;99273.38;;;-0.42;67.99
59106;BME280;44891;50.204;8.132;2023-04-04T01:25:13;99273.28;;;-0.50;68.31
59106;BME280;44891;50.204;8.132;2023-04-04T01:29:20;99275.56;;;-0.47;68.05
59106;BME280;44891;50.204;8.132;2023-04-04T01:33:24;99271.00;;;-0.26;67.18
59106;BME280;44891;50.204;8.132;2023-04-04T01:37:29;99275.53;;;-0.38;67.98
59106;BME280;44891;50.204;8.132;2023-04-04T01:41:34;99279.16;;;-0.58;68.49
59106;BME280;44891;50.204;8.132;2023-04-04T01:45:39;99280.78;;;-0.67;69.63
59106;BME280;44891;50.204;8.132;2023-04-04T01:49:44;99279.97;;;-0.67;69.56
59106;BME280;44891;50.204;8.132;2023-04-04T01:53:46;99278.09;;;-0.65;69.76
59106;BME280;44891;50.204;8.132;2023-04-04T01:57:48;99271.16;;;-0.74;69.70
59106;BME280;44891;50.204;8.132;2023-04-04T02:01:52;99267.56;;;-1.01;71.44
59106;BME280;44891;50.204;8.132;2023-04-04T02:05:54;99267.00;;;-0.85;70.00
59106;BME280;44891;50.204;8.132;2023-04-04T02:09:56;99272.19;;;-1.04;70.95
59106;BME280;44891;50.204;8.132;2023-04-04T02:13:58;99226.06;;;-1.27;70.46
59106;BME280;44891;50.204;8.132;2023-04-04T02:18:03;99265.63;;;-0.89;69.96
59106;BME280;44891;50.204;8.132;2023-04-04T02:22:05;99279.38;;;-0.98;70.92
59106;BME280;44891;50.204;8.132;2023-04-04T02:26:06;99274.06;;;-0.97;70.59
59106;BME280;44891;50.204;8.132;2023-04-04T02:30:11;99281.00;;;-1.17;71.13
59106;BME280;44891;50.204;8.132;2023-04-04T02:34:15;99270.97;;;-1.20;71.08
59106;BME280;44891;50.204;8.132;2023-04-04T02:38:18;99266.50;;;-1.37;71.32
59106;BME280;44891;50.204;8.132;2023-04-04T02:42:21;99271.50;;;-1.55;72.89
59106;BME280;44891;50.204;8.132;2023-04-04T02:46:24;99264.47;;;-1.24;71.61
59106;BME280;44891;50.204;8.132;2023-04-04T02:50:33;99267.59;;;-1.30;71.55
59106;BME280;44891;50.204;8.132;2023-04-04T02:54:35;99263.22;;;-1.20;71.07
59106;BME280;44891;50.204;8.132;2023-04-04T02:58:39;99261.34;;;-1.76;72.11
59106;BME280;44891;50.204;8.132;2023-04-04T03:02:41;99260.25;;;-1.73;72.90
59106;BME280;44891;50.204;8.132;2023-04-04T03:06:44;99253.22;;;-1.52;71.86
59106;BME280;44891;50.204;8.132;2023-04-04T03:10:48;99246.69;;;-1.17;71.22
59106;BME280;44891;50.204;8.132;2023-04-04T03:14:50;99244.00;;;-1.35;71.26
59106;BME280;44891;50.204;8.132;2023-04-04T03:18:51;99245.63;;;-1.53;72.27
59106;BME280;44891;50.204;8.132;2023-04-04T03:22:56;99253.06;;;-1.70;72.96
59106;BME280;44891;50.204;8.132;2023-04-04T03:26:59;99246.22;;;-2.09;74.55
59106;BME280;44891;50.204;8.132;2023-04-04T03:31:02;99241.63;;;-2.46;76.52
59106;BME280;44891;50.204;8.132;2023-04-04T03:35:05;99237.09;;;-2.33;76.33
59106;BME280;44891;50.204;8.132;2023-04-04T03:39:08;99238.94;;;-1.95;75.23
59106;BME280;44891;50.204;8.132;2023-04-04T03:43:10;99233.69;;;-1.83;74.35
59106;BME280;44891;50.204;8.132;2023-04-04T03:47:13;99230.13;;;-1.92;74.46
59106;BME280;44891;50.204;8.132;2023-04-04T03:51:21;99223.09;;;-1.90;74.78
59106;BME280;44891;50.204;8.132;2023-04-04T03:55:24;99222.97;;;-1.79;73.48
59106;BME280;44891;50.204;8.132;2023-04-04T03:59:29;99216.47;;;-1.73;73.13
59106;BME280;44891;50.204;8.132;2023-04-04T04:03:31;99216.75;;;-1.76;73.42
59106;BME280;44891;50.204;8.132;2023-04-04T04:07:33;99218.91;;;-1.91;73.96
59106;BME280;44891;50.204;8.132;2023-04-04T04:11:36;99215.22;;;-2.08;74.40
59106;BME280;44891;50.204;8.132;2023-04-04T04:15:38;99222.63;;;-2.24;75.37
59106;BME280;44891;50.204;8.132;2023-04-04T04:19:48;99220.88;;;-2.14;74.59
59106;BME280;44891;50.204;8.132;2023-04-04T04:23:51;99211.94;;;-2.20;74.55
59106;BME280;44891;50.204;8.132;2023-04-04T04:27:55;99210.84;;;-2.27;75.36
59106;BME280;44891;50.204;8.132;2023-04-04T04:31:58;99214.78;;;-2.23;74.74
59106;BME280;44891;50.204;8.132;2023-04-04T04:36:04;99208.72;;;-2.52;76.43
59106;BME280;44891;50.204;8.132;2023-04-04T04:40:17;99213.16;;;-2.24;75.16
59106;BME280;44891;50.204;8.132;2023-04-04T04:44:27;99217.44;;;-2.34;75.09
59106;BME280;44891;50.204;8.132;2023-04-04T04:48:30;99219.78;;;-2.31;75.16
59106;BME280;44891;50.204;8.132;2023-04-04T04:52:35;99230.06;;;-2.31;74.99
59106;BME280;44891;50.204;8.132;2023-04-04T04:56:37;99220.84;;;-2.33;75.38
59106;BME280;44891;50.204;8.132;2023-04-04T05:00:44;99235.84;;;-2.38;75.84
59106;BME280;44891;50.204;8.132;2023-04-04T05:04:46;99241.13;;;-2.40;75.71
59106;BME280;44891;50.204;8.132;2023-04-04T05:08:50;99239.00;;;-2.25;75.35
59106;BME280;44891;50.204;8.132;2023-04-04T05:13:00;99240.34;;;-2.31;75.61
59106;BME280;44891;50.204;8.132;2023-04-04T05:17:09;99228.03;;;-2.27;75.71
59106;BME280;44891;50.204;8.132;2023-04-04T05:21:12;99225.50;;;-2.08;74.60
59106;BME280;44891;50.204;8.132;2023-04-04T05:25:14;99226.47;;;-2.09;74.39
59106;BME280;44891;50.204;8.132;2023-04-04T05:29:19;99217.13;;;-2.00;74.28
59106;BME280;44891;50.204;8.132;2023-04-04T05:33:24;99223.47;;;-2.14;74.68
59106;BME280;44891;50.204;8.132;2023-04-04T05:37:46;99217.66;;;-2.06;75.32
59106;BME280;44891;50.204;8.132;2023-04-04T05:41:50;99226.63;;;-1.91;74.66
59106;BME280;44891;50.204;8.132;2023-04-04T05:45:54;99229.06;;;-1.89;74.63
59106;BME280;44891;50.204;8.132;2023-04-04T05:49:59;99234.63;;;-1.75;74.28
59106;BME280;44891;50.204;8.132;2023-04-04T05:54:01;99238.16;;;-1.66;74.07
59106;BME280;44891;50.204;8.132;2023-04-04T05:58:07;99227.19;;;-1.58;74.21
59106;BME280;44891;50.204;8.132;2023-04-04T06:02:20;99225.69;;;-1.42;73.78
59106;BME280;44891;50.204;8.132;2023-04-04T06:06:31;99232.03;;;-1.26;73.38
59106;BME280;44891;50.204;8.132;2023-04-04T06:10:33;99230.13;;;-1.05;72.81
59106;BME280;44891;50.204;8.132;2023-04-04T06:14:36;99232.41;;;-0.92;72.92
59106;BME280;44891;50.204;8.132;2023-04-04T06:18:40;99223.13;;;-0.75;72.66
59106;BME280;44891;50.204;8.132;2023-04-04T06:22:44;99227.22;;;-0.45;71.38
59106;BME280;44891;50.204;8.132;2023-04-04T06:26:47;99230.03;;;-0.39;71.35
59106;BME280;44891;50.204;8.132;2023-04-04T06:30:51;99232.88;;;-0.32;71.18
59106;BME280;44891;50.204;8.132;2023-04-04T06:35:02;99232.31;;;-0.26;71.58
59106;BME280;44891;50.204;8.132;2023-04-04T06:39:16;99234.88;;;-0.26;72.16
59106;BME280;44891;50.204;8.132;2023-04-04T06:43:20;99241.09;;;-0.19;72.05
59106;BME280;44891;50.204;8.132;2023-04-04T06:47:22;99259.09;;;-0.09;72.72
59106;BME280;44891;50.204;8.132;2023-04-04T06:51:24;99251.53;;;0.07;73.46
59106;BME280;44891;50.204;8.132;2023-04-04T06:55:28;99250.91;;;0.41;71.64
59106;BME280;44891;50.204;8.132;2023-04-04T06:59:30;99253.47;;;0.59;70.01
59106;BME280;44891;50.204;8.132;2023-04-04T07:03:31;99255.78;;;0.79;65.15
59106;BME280;44891;50.204;8.132;2023-04-04T07:07:33;99255.06;;;0.95;69.57
59106;BME280;44891;50.204;8.132;2023-04-04T07:11:37;99258.84;;;1.27;63.17
59106;BME280;44891;50.204;8.132;2023-04-04T07:15:38;99203.38;;;1.29;58.68
59106;BME280;44891;50.204;8.132;2023-04-04T07:19:40;99255.75;;;1.92;55.45
59106;BME280;44891;50.204;8.132;2023-04-04T07:23:42;99261.94;;;2.07;54.72
59106;BME280;44891;50.204;8.132;2023-04-04T07:27:45;99266.97;;;2.16;53.88
59106;BME280;44891;50.204;8.132;2023-04-04T07:31:47;99264.75;;;2.30;53.15
59106;BME280;44891;50.204;8.132;2023-04-04T07:35:49;99253.09;;;2.42;53.44
59106;BME280;44891;50.204;8.132;2023-04-04T07:39:51;99258.28;;;2.50;51.99
59106;BME280;44891;50.204;8.132;2023-04-04T07:43:54;99259.78;;;2.61;52.24
59106;BME280;44891;50.204;8.132;2023-04-04T07:47:56;99267.88;;;2.74;51.33
59106;BME280;44891;50.204;8.132;2023-04-04T07:51:58;99264.31;;;2.83;51.08
59106;BME280;44891;50.204;8.132;2023-04-04T07:56:00;99262.03;;;2.96;51.00
59106;BME280;44891;50.204;8.132;2023-04-04T08:00:07;99257.66;;;3.05;50.74
59106;BME280;44891;50.204;8.132;2023-04-04T08:04:14;99250.03;;;3.12;49.87
59106;BME280;44891;50.204;8.132;2023-04-04T08:08:16;99249.06;;;3.13;49.78
59106;BME280;44891;50.204;8.132;2023-04-04T08:12:18;99260.88;;;3.32;50.12
59106;BME280;44891;50.204;8.132;2023-04-04T08:16:21;99252.06;;;3.41;49.31
59106;BME280;44891;50.204;8.132;2023-04-04T08:20:23;99256.94;;;3.36;48.97
59106;BME280;44891;50.204;8.132;2023-04-04T08:24:25;99200.50;;;3.38;49.13
59106;BME280;44891;50.204;8.132;2023-04-04T08:28:26;99254.63;;;3.65;47.33
59106;BME280;44891;50.204;8.132;2023-04-04T08:32:30;99244.53;;;3.70;45.94
59106;BME280;44891;50.204;8.132;2023-04-04T08:36:32;99248.97;;;3.93;46.92
59106;BME280;44891;50.204;8.132;2023-04-04T08:40:34;99255.97;;;4.23;46.71
59106;BME280;44891;50.204;8.132;2023-04-04T08:44:38;99244.91;;;4.21;45.11
59106;BME280;44891;50.204;8.132;2023-04-04T08:48:43;99241.25;;;4.07;45.93
59106;BME280;44891;50.204;8.132;2023-04-04T08:52:46;99238.13;;;4.43;46.69
59106;BME280;44891;50.204;8.132;2023-04-04T08:56:49;99238.47;;;4.63;45.73
59106;BME280;44891;50.204;8.132;2023-04-04T09:00:56;99240.09;;;4.64;45.70
59106;BME280;44891;50.204;8.132;2023-04-04T09:05:02;99244.81;;;4.83;45.87
59106;BME280;44891;50.204;8.132;2023-04-04T09:09:05;99247.41;;;4.83;44.10
59106;BME280;44891;50.204;8.132;2023-04-04T09:13:07;99249.00;;;4.70;44.65
59106;BME280;44891;50.204;8.132;2023-04-04T09:17:09;99233.34;;;5.07;44.02
59106;BME280;44891;50.204;8.132;2023-04-04T09:21:12;99236.03;;;4.84;42.96
59106;BME280;44891;50.204;8.132;2023-04-04T09:25:14;99237.34;;;5.33;43.78
59106;BME280;44891;50.204;8.132;2023-04-04T09:29:17;99237.91;;;5.43;42.76
59106;BME280;44891;50.204;8.132;2023-04-04T09:33:19;99235.56;;;5.48;42.94
59106;BME280;44891;50.204;8.132;2023-04-04T09:37:23;99237.31;;;5.03;42.43
59106;BME280;44891;50.204;8.132;2023-04-04T09:41:24;99239.81;;;4.97;43.96
59106;BME280;44891;50.204;8.132;2023-04-04T09:45:27;99237.09;;;5.42;42.71
59106;BME280;44891;50.204;8.132;2023-04-04T09:49:30;99235.47;;;5.56;41.91
59106;BME280;44891;50.204;8.132;2023-04-04T09:53:34;99235.81;;;5.68;42.80
59106;BME280;44891;50.204;8.132;2023-04-04T09:57:37;99231.22;;;5.85;41.58
59106;BME280;44891;50.204;8.132;2023-04-04T10:01:41;99232.34;;;6.12;42.25
59106;BME280;44891;50.204;8.132;2023-04-04T10:05:45;99217.16;;;6.00;41.44
59106;BME280;44891;50.204;8.132;2023-04-04T10:09:49;99219.50;;;6.10;42.42
59106;BME280;44891;50.204;8.132;2023-04-04T10:13:52;99231.00;;;6.59;42.67
59106;BME280;44891;50.204;8.132;2023-04-04T10:17:54;99221.22;;;6.61;42.47
59106;BME280;44891;50.204;8.132;2023-04-04T10:21:56;99218.59;;;6.61;42.23
59106;BME280;44891;50.204;8.132;2023-04-04T10:25:59;99223.16;;;6.80;42.00
59106;BME280;44891;50.204;8.132;2023-04-04T10:30:01;99222.75;;;7.04;41.95
59106;BME280;44891;50.204;8.132;2023-04-04T10:34:06;99219.78;;;7.42;40.77
59106;BME280;44891;50.204;8.132;2023-04-04T10:38:10;99218.13;;;7.76;39.36
59106;BME280;44891;50.204;8.132;2023-04-04T10:42:14;99214.22;;;7.58;39.19
59106;BME280;44891;50.204;8.132;2023-04-04T10:46:17;99208.38;;;6.87;39.32
59106;BME280;44891;50.204;8.132;2023-04-04T10:50:21;99211.41;;;7.53;39.54
59106;BME280;44891;50.204;8.132;2023-04-04T10:54:24;99209.78;;;8.00;40.07
59106;BME280;44891;50.204;8.132;2023-04-04T10:58:28;99203.41;;;8.29;38.29
59106;BME280;44891;50.204;8.132;2023-04-04T11:02:46;99200.75;;;8.16;37.69
59106;BME280;44891;50.204;8.132;2023-04-04T11:07:06;99193.50;;;8.18;37.57
59106;BME280;44891;50.204;8.132;2023-04-04T11:11:08;99190.53;;;8.34;38.25
59106;BME280;44891;50.204;8.132;2023-04-04T11:15:12;99187.75;;;8.62;37.21
59106;BME280;44891;50.204;8.132;2023-04-04T11:19:14;99176.19;;;8.17;37.01
59106;BME280;44891;50.204;8.132;2023-04-04T11:23:18;99176.69;;;8.80;37.43
59106;BME280;44891;50.204;8.132;2023-04-04T11:27:21;99186.09;;;8.28;36.28
59106;BME280;44891;50.204;8.132;2023-04-04T11:31:25;99176.09;;;8.71;35.69
59106;BME280;44891;50.204;8.132;2023-04-04T11:35:28;99167.66;;;9.47;36.42
59106;BME280;44891;50.204;8.132;2023-04-04T11:39:30;99165.75;;;9.74;35.10
59106;BME280;44891;50.204;8.132;2023-04-04T11:43:33;99162.97;;;9.56;34.28
59106;BME280;44891;50.204;8.132;2023-04-04T11:47:36;99155.25;;;9.74;34.17
59106;BME280;44891;50.204;8.132;2023-04-04T11:51:41;99152.06;;;10.04;33.63
59106;BME280;44891;50.204;8.132;2023-04-04T11:55:46;99142.22;;;10.31;33.45
59106;BME280;44891;50.204;8.132;2023-04-04T11:59:49;99143.47;;;10.53;33.42
59106;BME280;44891;50.204;8.132;2023-04-04T12:03:53;99138.47;;;9.75;34.12
59106;BME280;44891;50.204;8.132;2023-04-04T12:07:56;99132.44;;;10.45;33.94
59106;BME280;44891;50.204;8.132;2023-04-04T12:11:59;99128.09;;;10.57;33.74
59106;BME280;44891;50.204;8.132;2023-04-04T12:16:01;99131.94;;;10.54;32.74
59106;BME280;44891;50.204;8.132;2023-04-04T12:20:05;99130.69;;;10.32;33.37
59106;BME280;44891;50.204;8.132;2023-04-04T12:24:08;99124.59;;;11.55;32.27
59106;BME280;44891;50.204;8.132;2023-04-04T12:28:10;99135.75;;;11.38;32.81
59106;BME280;44891;50.204;8.132;2023-04-04T12:32:12;99127.28;;;11.66;31.28
59106;BME280;44891;50.204;8.132;2023-04-04T12:36:16;99116.34;;;12.00;32.10
59106;BME280;44891;50.204;8.132;2023-04-04T12:40:18;99121.81;;;12.40;31.28
59106;BME280;44891;50.204;8.132;2023-04-04T12:44:24;99108.44;;;12.88;29.90
59106;BME280;44891;50.204;8.132;2023-04-04T12:48:27;99114.50;;;13.52;29.52
59106;BME280;44891;50.204;8.132;2023-04-04T12:52:30;99099.69;;;14.42;28.78
59106;BME280;44891;50.204;8.132;2023-04-04T12:56:33;99103.50;;;14.85;27.06
59106;BME280;44891;50.204;8.132;2023-04-04T13:00:36;99085.69;;;17.74;23.75
59106;BME280;44891;50.204;8.132;2023-04-04T13:04:39;99084.25;;;17.46;23.68
59106;BME280;44891;50.204;8.132;2023-04-04T13:08:49;99083.81;;;20.59;21.54
59106;BME280;44891;50.204;8.132;2023-04-04T13:12:54;99075.97;;;21.39;20.27
59106;BME280;44891;50.204;8.132;2023-04-04T13:17:01;99076.63;;;21.50;19.78
59106;BME280;44891;50.204;8.132;2023-04-04T13:21:04;99073.81;;;21.41;19.21
59106;BME280;44891;50.204;8.132;2023-04-04T13:25:08;99074.38;;;21.76;19.50
59106;BME280;44891;50.204;8.132;2023-04-04T13:29:10;99069.97;;;20.81;19.78
59106;BME280;44891;50.204;8.132;2023-04-04T13:33:12;99058.41;;;22.22;18.87
59106;BME280;44891;50.204;8.132;2023-04-04T13:37:14;99054.69;;;20.62;20.34
59106;BME280;44891;50.204;8.132;2023-04-04T13:41:17;99039.13;;;20.70;20.51
59106;BME280;44891;50.204;8.132;2023-04-04T13:45:19;99033.66;;;19.64;21.25
59106;BME280;44891;50.204;8.132;2023-04-04T13:49:21;99033.47;;;20.18;20.40
59106;BME280;44891;50.204;8.132;2023-04-04T13:53:23;99024.16;;;20.74;20.88
59106;BME280;44891;50.204;8.132;2023-04-04T13:57:26;99021.88;;;21.05;20.58
59106;BME280;44891;50.204;8.132;2023-04-04T14:01:28;98989.25;;;22.30;19.81
59106;BME280;44891;50.204;8.132;2023-04-04T14:05:30;99013.19;;;23.45;19.20
59106;BME280;44891;50.204;8.132;2023-04-04T14:09:32;99001.00;;;22.89;18.71
59106;BME280;44891;50.204;8.132;2023-04-04T14:13:35;99004.03;;;23.46;18.54
59106;BME280;44891;50.204;8.132;2023-04-04T14:17:37;98995.56;;;20.50;20.10
59106;BME280;44891;50.204;8.132;2023-04-04T14:21:38;98996.56;;;21.02;20.64
59106;BME280;44891;50.204;8.132;2023-04-04T14:25:40;98993.16;;;21.72;20.22
59106;BME280;44891;50.204;8.132;2023-04-04T14:29:44;98987.84;;;19.91;21.74
59106;BME280;44891;50.204;8.132;2023-04-04T14:33:46;98976.31;;;20.53;21.02
59106;BME280;44891;50.204;8.132;2023-04-04T14:37:48;98977.50;;;19.06;21.66
59106;BME280;44891;50.204;8.132;2023-04-04T14:41:49;98975.38;;;19.02;22.83
59106;BME280;44891;50.204;8.132;2023-04-04T14:45:53;98976.72;;;17.94;23.08
59106;BME280;44891;50.204;8.132;2023-04-04T14:49:55;98963.66;;;19.09;22.33
59106;BME280;44891;50.204;8.132;2023-04-04T14:53:57;98956.72;;;19.08;22.28
59106;BME280;44891;50.204;8.132;2023-04-04T14:57:59;98950.66;;;19.41;21.74
59106;BME280;44891;50.204;8.132;2023-04-04T15:02:03;98943.06;;;19.59;21.55
59106;BME280;44891;50.204;8.132;2023-04-04T15:06:05;98956.66;;;18.63;22.66
59106;BME280;44891;50.204;8.132;2023-04-04T15:10:07;98956.22;;;18.15;23.12
59106;BME280;44891;50.204;8.132;2023-04-04T15:14:09;98956.38;;;18.60;21.36
59106;BME280;44891;50.204;8.132;2023-04-04T15:18:13;98946.31;;;18.46;21.80
59106;BME280;44891;50.204;8.132;2023-04-04T15:22:15;98944.31;;;17.31;23.24
59106;BME280;44891;50.204;8.132;2023-04-04T15:26:17;98939.25;;;18.06;23.08
59106;BME280;44891;50.204;8.132;2023-04-04T15:30:18;98939.53;;;18.00;22.62
59106;BME280;44891;50.204;8.132;2023-04-04T15:34:22;98942.19;;;18.10;22.78
59106;BME280;44891;50.204;8.132;2023-04-04T15:38:25;98943.25;;;17.63;23.03
59106;BME280;44891;50.204;8.132;2023-04-04T15:42:27;98937.97;;;16.07;24.62
59106;BME280;44891;50.204;8.132;2023-04-04T15:46:29;98935.03;;;16.56;24.74
59106;BME280;44891;50.204;8.132;2023-04-04T15:50:32;98937.22;;;16.17;25.68
59106;BME280;44891;50.204;8.132;2023-04-04T15:54:34;98931.50;;;15.88;25.78
59106;BME280;44891;50.204;8.132;2023-04-04T15:58:35;98936.16;;;15.16;26.65
59106;BME280;44891;50.204;8.132;2023-04-04T16:02:37;98926.66;;;14.28;27.48
59106;BME280;44891;50.204;8.132;2023-04-04T16:06:41;98931.84;;;14.83;26.87
59106;BME280;44891;50.204;8.132;2023-04-04T16:10:42;98920.03;;;15.18;26.59
59106;BME280;44891;50.204;8.132;2023-04-04T16:14:44;98924.81;;;13.90;28.87
59106;BME280;44891;50.204;8.132;2023-04-04T16:18:46;98919.91;;;12.74;29.88
59106;BME280;44891;50.204;8.132;2023-04-04T16:22:49;98915.34;;;12.29;30.53
59106;BME280;44891;50.204;8.132;2023-04-04T16:26:51;98915.19;;;11.54;32.15
59106;BME280;44891;50.204;8.132;2023-04-04T16:30:53;98916.34;;;10.56;34.83
59106;BME280;44891;50.204;8.132;2023-04-04T16:34:55;98921.00;;;10.35;35.67
59106;BME280;44891;50.204;8.132;2023-04-04T16:38:58;98912.44;;;10.03;35.94
59106;BME280;44891;50.204;8.132;2023-04-04T16:43:00;98913.03;;;10.05;36.06
59106;BME280;44891;50.204;8.132;2023-04-04T16:47:02;98874.53;;;9.56;37.21
59106;BME280;44891;50.204;8.132;2023-04-04T16:51:04;98905.06;;;9.44;37.30
59106;BME280;44891;50.204;8.132;2023-04-04T16:55:08;98910.19;;;9.07;38.97
59106;BME280;44891;50.204;8.132;2023-04-04T16:59:10;98909.50;;;8.29;39.48
59106;BME280;44891;50.204;8.132;2023-04-04T17:03:11;98859.03;;;8.15;40.47
59106;BME280;44891;50.204;8.132;2023-04-04T17:07:13;98910.66;;;8.53;40.19
59106;BME280;44891;50.204;8.132;2023-04-04T17:11:16;98903.78;;;8.52;40.48
59106;BME280;44891;50.204;8.132;2023-04-04T17:15:18;98903.41;;;8.55;40.52
59106;BME280;44891;50.204;8.132;2023-04-04T17:19:20;98915.50;;;8.49;39.97
59106;BME280;44891;50.204;8.132;2023-04-04T17:23:22;98904.06;;;8.37;40.46
59106;BME280;44891;50.204;8.132;2023-04-04T17:27:25;98906.88;;;8.29;40.19
59106;BME280;44891;50.204;8.132;2023-04-04T17:31:27;98898.03;;;8.16;40.51
59106;BME280;44891;50.204;8.132;2023-04-04T17:35:29;98902.31;;;7.98;40.71
59106;BME280;44891;50.204;8.132;2023-04-04T17:39:31;98902.72;;;7.95;40.91
59106;BME280;44891;50.204;8.132;2023-04-04T17:43:34;98907.19;;;7.81;41.26
59106;BME280;44891;50.204;8.132;2023-04-04T17:47:36;98903.56;;;7.75;41.52
59106;BME280;44891;50.204;8.132;2023-04-04T17:51:39;98910.00;;;7.66;41.72
59106;BME280;44891;50.204;8.132;2023-04-04T17:55:42;98914.81;;;7.62;42.48
59106;BME280;44891;50.204;8.132;2023-04-04T17:59:45;98915.25;;;7.46;42.90
59106;BME280;44891;50.204;8.132;2023-04-04T18:03:47;98918.44;;;7.35;43.36
59106;BME280;44891;50.204;8.132;2023-04-04T18:07:49;98921.25;;;7.27;43.82
59106;BME280;44891;50.204;8.132;2023-04-04T18:11:51;98922.78;;;6.95;45.94
59106;BME280;44891;50.204;8.132;2023-04-04T18:15:54;98923.06;;;6.59;46.60
59106;BME280;44891;50.204;8.132;2023-04-04T18:19:56;98924.69;;;6.66;46.84
59106;BME280;44891;50.204;8.132;2023-04-04T18:24:00;98926.59;;;6.44;47.23
59106;BME280;44891;50.204;8.132;2023-04-04T18:28:02;98927.06;;;6.20;48.39
59106;BME280;44891;50.204;8.132;2023-04-04T18:32:05;98935.63;;;6.07;49.74
59106;BME280;44891;50.204;8.132;2023-04-04T18:36:07;98936.22;;;6.03;50.45
59106;BME280;44891;50.204;8.132;2023-04-04T18:40:09;98936.91;;;5.90;50.33
59106;BME280;44891;50.204;8.132;2023-04-04T18:44:11;98933.59;;;5.53;50.88
59106;BME280;44891;50.204;8.132;2023-04-04T18:48:14;98935.81;;;4.92;51.63
59106;BME280;44891;50.204;8.132;2023-04-04T18:52:17;98937.03;;;4.60;52.56
59106;BME280;44891;50.204;8.132;2023-04-04T18:56:19;98940.66;;;4.29;53.81
59106;BME280;44891;50.204;8.132;2023-04-04T19:00:21;98940.81;;;4.13;54.45
59106;BME280;44891;50.204;8.132;2023-04-04T19:04:25;98942.63;;;4.13;54.83
59106;BME280;44891;50.204;8.132;2023-04-04T19:08:28;98934.72;;;4.35;53.77
59106;BME280;44891;50.204;8.132;2023-04-04T19:12:32;98933.00;;;4.57;54.43
59106;BME280;44891;50.204;8.132;2023-04-04T19:16:34;98934.88;;;4.49;54.91
59106;BME280;44891;50.204;8.132;2023-04-04T19:20:37;98934.09;;;4.48;55.65
59106;BME280;44891;50.204;8.132;2023-04-04T19:24:41;98945.13;;;4.35;55.24
59106;BME280;44891;50.204;8.132;2023-04-04T19:28:43;98938.25;;;3.75;56.83
59106;BME280;44891;50.204;8.132;2023-04-04T19:32:45;98942.72;;;4.04;56.08
59106;BME280;44891;50.204;8.132;2023-04-04T19:36:48;98948.31;;;3.78;56.81
59106;BME280;44891;50.204;8.132;2023-04-04T19:40:51;98937.88;;;3.26;57.99
59106;BME280;44891;50.204;8.132;2023-04-04T19:44:53;98937.00;;;3.11;59.23
59106;BME280;44891;50.204;8.132;2023-04-04T19:48:55;98939.13;;;3.30;60.03
59106;BME280;44891;50.204;8.132;2023-04-04T19:52:59;98944.03;;;3.48;58.97
59106;BME280;44891;50.204;8.132;2023-04-04T19:57:01;98933.78;;;3.32;59.68
59106;BME280;44891;50.204;8.132;2023-04-04T20:01:03;98941.44;;;3.25;59.75
59106;BME280;44891;50.204;8.132;2023-04-04T20:05:06;98940.41;;;2.80;60.69
59106;BME280;44891;50.204;8.132;2023-04-04T20:09:30;98944.97;;;2.31;62.72
59106;BME280;44891;50.204;8.132;2023-04-04T20:13:34;98947.72;;;2.37;62.74
59106;BME280;44891;50.204;8.132;2023-04-04T20:17:36;98951.38;;;2.59;62.97
59106;BME280;44891;50.204;8.132;2023-04-04T20:21:38;98948.50;;;2.77;62.11
59106;BME280;44891;50.204;8.132;2023-04-04T20:25:41;98952.03;;;2.53;61.91
59106;BME280;44891;50.204;8.132;2023-04-04T20:29:43;98946.38;;;2.50;62.68
59106;BME280;44891;50.204;8.132;2023-04-04T20:33:45;98946.59;;;2.40;62.93
59106;BME280;44891;50.204;8.132;2023-04-04T20:37:47;98949.53;;;2.29;63.42
59106;BME280;44891;50.204;8.132;2023-04-04T20:41:51;98943.72;;;2.27;63.49
59106;BME280;44891;50.204;8.132;2023-04-04T20:45:52;98959.53;;;2.40;63.63
59106;BME280;44891;50.204;8.132;2023-04-04T20:49:55;98952.47;;;2.26;63.65
59106;BME280;44891;50.204;8.132;2023-04-04T20:53:58;98954.47;;;1.99;64.69
59106;BME280;44891;50.204;8.132;2023-04-04T20:58:05;98962.22;;;2.07;65.14
59106;BME280;44891;50.204;8.132;2023-04-04T21:02:12;98957.34;;;2.04;65.12
59106;BME280;44891;50.204;8.132;2023-04-04T21:06:15;98955.88;;;2.10;64.76
59106;BME280;44891;50.204;8.132;2023-04-04T21:10:18;98962.19;;;2.15;64.50
59106;BME280;44891;50.204;8.132;2023-04-04T21:14:22;98955.44;;;1.90;65.12
59106;BME280;44891;50.204;8.132;2023-04-04T21:18:25;98955.13;;;1.85;65.91
59106;BME280;44891;50.204;8.132;2023-04-04T21:22:27;98952.38;;;1.86;66.20
59106;BME280;44891;50.204;8.132;2023-04-04T21:26:30;98958.53;;;1.77;66.15
59106;BME280;44891;50.204;8.132;2023-04-04T21:30:40;98956.91;;;1.84;65.85
59106;BME280;44891;50.204;8.132;2023-04-04T21:34:43;98957.38;;;1.72;66.56